createdAt,value
2018-04-30T00:01:08.080Z,93.00
2018-04-30T00:03:34.156Z,93.10
2018-04-30T00:06:00.244Z,93.10
2018-04-30T00:08:26.319Z,93.50
2018-04-30T00:10:53.152Z,93.30
2018-04-30T00:13:19.968Z,93.30
2018-04-30T00:15:46.040Z,93.30
2018-04-30T00:18:12.130Z,93.40
2018-04-30T00:20:38.204Z,93.50
2018-04-30T00:23:19.024Z,93.50
2018-04-30T00:26:09.897Z,93.70
2018-04-30T00:28:42.668Z,93.80
2018-04-30T00:31:36.357Z,93.70
2018-04-30T00:37:15.225Z,94.10
2018-04-30T00:39:46.711Z,94.00
2018-04-30T00:42:22.100Z,94.00
2018-04-30T00:44:54.770Z,94.00
2018-04-30T00:47:39.152Z,93.90
2018-04-30T00:50:05.321Z,93.90
2018-04-30T00:58:54.744Z,94.00
2018-04-30T01:04:40.100Z,94.20
2018-04-30T01:07:12.840Z,94.10
2018-04-30T01:09:47.467Z,94.20
2018-04-30T01:12:32.878Z,94.20
2018-04-30T01:14:58.968Z,94.10
2018-04-30T01:17:25.052Z,94.20
2018-04-30T01:19:51.883Z,94.30
2018-04-30T01:22:17.952Z,94.20
2018-04-30T01:24:44.036Z,94.10
2018-04-30T01:27:10.121Z,93.90
2018-04-30T01:29:36.279Z,93.80
2018-04-30T01:32:02.301Z,93.70
2018-04-30T01:34:28.381Z,93.70
2018-04-30T01:36:54.468Z,93.70
2018-04-30T01:39:20.547Z,93.70
2018-04-30T01:41:46.637Z,93.80
2018-04-30T01:44:13.492Z,93.30
2018-04-30T01:46:39.569Z,93.30
2018-04-30T01:49:05.651Z,93.20
2018-04-30T01:51:31.732Z,93.10
2018-04-30T01:53:57.809Z,93.10
2018-04-30T01:56:23.896Z,93.00
2018-04-30T01:58:50.717Z,92.70
2018-04-30T02:01:16.796Z,92.70
2018-04-30T02:03:49.173Z,92.60
2018-04-30T02:06:15.249Z,92.60
2018-04-30T02:08:41.331Z,92.50
2018-04-30T02:11:07.408Z,92.40
2018-04-30T02:13:34.227Z,92.50
2018-04-30T02:16:00.313Z,92.20
2018-04-30T02:18:26.393Z,92.20
2018-04-30T02:20:52.475Z,92.20
2018-04-30T02:23:18.569Z,92.00
2018-04-30T02:25:45.392Z,91.70
2018-04-30T02:28:11.470Z,91.70
2018-04-30T02:30:37.551Z,91.70
2018-04-30T02:33:04.368Z,91.40
2018-04-30T02:35:30.451Z,91.40
2018-04-30T02:37:56.528Z,91.40
2018-04-30T02:40:22.609Z,91.20
2018-04-30T02:42:48.764Z,91.00
2018-04-30T02:45:14.840Z,90.90
2018-04-30T02:47:40.936Z,90.70
2018-04-30T02:50:07.759Z,90.40
2018-04-30T02:52:33.853Z,90.50
2018-04-30T02:54:59.929Z,90.50
2018-04-30T02:57:26.017Z,90.50
2018-04-30T02:59:52.092Z,90.40
2018-04-30T03:02:18.933Z,90.20
2018-04-30T03:04:45.753Z,90.10
2018-04-30T03:07:11.833Z,90.10
2018-04-30T03:09:37.920Z,90.00
2018-04-30T03:12:04.741Z,90.10
2018-04-30T03:14:30.820Z,90.10
2018-04-30T03:16:56.888Z,90.00
2018-04-30T03:19:22.973Z,90.00
2018-04-30T03:21:49.036Z,90.00
2018-04-30T03:24:15.120Z,89.90
2018-04-30T03:26:41.207Z,89.80
2018-04-30T03:29:07.299Z,89.50
2018-04-30T03:31:33.417Z,89.20
2018-04-30T03:33:59.504Z,89.10
2018-04-30T03:36:26.380Z,88.80
2018-04-30T03:38:52.464Z,88.80
2018-04-30T03:41:19.284Z,88.50
2018-04-30T03:43:45.372Z,88.50
2018-04-30T03:46:11.456Z,88.30
2018-04-30T03:48:38.268Z,88.50
2018-04-30T03:51:04.347Z,87.90
2018-04-30T03:53:30.420Z,87.60
2018-04-30T03:55:56.500Z,87.30
2018-04-30T03:58:22.568Z,87.10
2018-04-30T04:01:07.232Z,86.90
2018-04-30T04:03:52.073Z,86.70
2018-04-30T04:09:27.501Z,86.30
2018-04-30T04:11:54.321Z,86.20
2018-04-30T04:14:20.375Z,86.10
2018-04-30T04:16:46.440Z,86.00
2018-04-30T04:19:12.496Z,85.90
2018-04-30T04:21:38.569Z,85.80
2018-04-30T04:24:04.620Z,85.70
2018-04-30T04:26:30.693Z,85.50
2018-04-30T04:28:57.504Z,85.50
2018-04-30T04:31:23.575Z,85.50
2018-04-30T04:33:49.632Z,85.40
2018-04-30T04:36:15.723Z,85.20
2018-04-30T04:38:41.784Z,85.00
2018-04-30T04:41:07.907Z,84.70
2018-04-30T04:43:34.676Z,84.20
2018-04-30T04:46:00.733Z,84.10
2018-04-30T04:48:26.812Z,83.90
2018-04-30T04:50:52.871Z,83.60
2018-04-30T04:53:19.684Z,82.90
2018-04-30T04:55:45.763Z,82.90
2018-04-30T04:58:11.844Z,82.50
2018-04-30T05:00:37.917Z,82.20
2018-04-30T05:03:03.991Z,81.90
2018-04-30T05:05:30.055Z,81.50
2018-04-30T05:07:56.139Z,81.20
2018-04-30T05:10:22.219Z,80.90
2018-04-30T05:12:48.300Z,80.50
2018-04-30T05:15:14.379Z,80.10
2018-04-30T05:17:40.456Z,79.70
2018-04-30T05:20:06.545Z,78.90
2018-04-30T05:22:32.664Z,78.90
2018-04-30T05:24:58.744Z,77.60
2018-04-30T05:27:25.580Z,75.30
2018-04-30T05:29:52.409Z,72.60
2018-04-30T05:32:18.480Z,72.50
2018-04-30T05:34:44.574Z,69.20
2018-04-30T05:37:11.450Z,64.70
2018-04-30T05:39:37.533Z,64.70
2018-04-30T05:42:03.615Z,62.00
2018-04-30T05:44:29.704Z,60.00
2018-04-30T05:46:56.519Z,54.10
2018-04-30T05:49:22.605Z,54.00
2018-04-30T05:51:48.683Z,51.50
2018-04-30T05:54:15.524Z,49.50
2018-04-30T05:56:42.361Z,50.10
2018-04-30T05:59:08.436Z,49.60
2018-04-30T06:01:34.524Z,51.60
2018-04-30T06:04:00.604Z,53.10
2018-04-30T06:06:26.688Z,55.00
2018-04-30T06:08:53.504Z,55.40
2018-04-30T06:11:19.601Z,55.40
2018-04-30T06:13:45.680Z,54.40
2018-04-30T06:16:12.513Z,51.10
2018-04-30T06:18:38.602Z,51.10
2018-04-30T06:21:04.688Z,48.50
2018-04-30T06:23:30.768Z,47.40
2018-04-30T06:25:56.852Z,45.90
2018-04-30T06:28:22.930Z,45.80
2018-04-30T06:30:49.008Z,44.50
2018-04-30T06:33:15.104Z,43.70
2018-04-30T06:35:41.179Z,42.50
2018-04-30T06:38:07.280Z,42.20
2018-04-30T06:40:33.368Z,41.70
2018-04-30T06:43:00.196Z,40.80
2018-04-30T06:45:26.266Z,40.80
2018-04-30T06:47:52.358Z,40.30
2018-04-30T06:50:19.172Z,39.90
2018-04-30T06:52:45.251Z,39.80
2018-04-30T06:55:11.327Z,39.90
2018-04-30T06:57:37.427Z,39.30
2018-04-30T07:00:03.497Z,39.30
2018-04-30T07:02:33.133Z,40.50
2018-04-30T07:08:17.161Z,40.30
2018-04-30T07:10:43.240Z,40.80
2018-04-30T07:13:09.328Z,40.10
2018-04-30T07:15:36.147Z,39.90
2018-04-30T07:18:02.228Z,39.80
2018-04-30T07:20:28.313Z,39.80
2018-04-30T07:22:54.404Z,39.60
2018-04-30T07:25:20.504Z,39.90
2018-04-30T07:27:46.626Z,39.30
2018-04-30T07:30:13.420Z,39.00
2018-04-30T07:32:39.505Z,38.90
2018-04-30T07:35:05.601Z,39.10
2018-04-30T07:37:32.425Z,39.50
2018-04-30T07:40:20.190Z,39.50
2018-04-30T07:42:46.267Z,39.50
2018-04-30T07:45:12.356Z,40.30
2018-04-30T07:47:38.439Z,40.60
2018-04-30T07:50:04.520Z,40.50
2018-04-30T07:52:30.605Z,39.60
2018-04-30T07:54:57.432Z,39.00
2018-04-30T07:57:24.252Z,38.40
2018-04-30T07:59:51.072Z,37.90
2018-04-30T08:02:17.128Z,37.90
2018-04-30T08:04:43.195Z,38.50
2018-04-30T08:07:09.256Z,39.40
2018-04-30T08:09:35.320Z,39.60
2018-04-30T08:12:02.136Z,39.00
2018-04-30T08:14:28.197Z,38.90
2018-04-30T08:16:55.012Z,38.80
2018-04-30T08:19:21.074Z,38.90
2018-04-30T08:21:47.139Z,38.70
2018-04-30T08:24:13.211Z,38.70
2018-04-30T08:26:40.018Z,39.30
2018-04-30T08:29:06.826Z,39.70
2018-04-30T08:31:32.889Z,39.60
2018-04-30T08:37:06.875Z,39.80
2018-04-30T08:39:32.942Z,38.80
2018-04-30T08:41:59.024Z,39.20
2018-04-30T08:44:25.084Z,39.70
2018-04-30T08:46:51.151Z,40.30
2018-04-30T08:49:17.956Z,41.20
2018-04-30T08:51:44.041Z,41.20
2018-04-30T08:54:10.116Z,41.10
2018-04-30T08:56:36.199Z,40.90
2018-04-30T08:59:02.304Z,41.60
2018-04-30T09:01:28.399Z,41.10
2018-04-30T09:03:54.494Z,41.30
2018-04-30T09:06:20.572Z,41.00
2018-04-30T09:08:47.397Z,40.00
2018-04-30T09:11:13.473Z,39.90
2018-04-30T09:13:39.564Z,39.80
2018-04-30T09:16:06.408Z,40.10
2018-04-30T09:18:33.235Z,39.50
2018-04-30T09:20:59.325Z,39.40
2018-04-30T09:23:25.404Z,40.00
2018-04-30T09:25:52.216Z,40.70
2018-04-30T09:28:19.061Z,41.00
2018-04-30T09:30:45.136Z,40.90
2018-04-30T09:33:11.235Z,40.80
2018-04-30T09:35:38.056Z,40.90
2018-04-30T09:38:04.128Z,40.80
2018-04-30T09:40:30.211Z,40.90
2018-04-30T09:42:56.279Z,40.00
2018-04-30T09:45:22.355Z,39.40
2018-04-30T09:47:48.440Z,39.50
2018-04-30T09:50:14.588Z,39.50
2018-04-30T09:52:40.660Z,39.60
2018-04-30T09:55:07.492Z,39.50
2018-04-30T09:57:34.305Z,39.00
2018-04-30T10:00:00.394Z,38.90
2018-04-30T10:02:26.479Z,39.00
2018-04-30T10:04:52.549Z,39.30
2018-04-30T10:07:18.645Z,39.90
2018-04-30T10:09:44.712Z,39.90
2018-04-30T10:12:10.792Z,40.40
2018-04-30T10:14:37.615Z,41.30
2018-04-30T10:17:03.679Z,41.20
2018-04-30T10:19:29.748Z,41.70
2018-04-30T10:21:55.834Z,41.90
2018-04-30T10:24:21.899Z,41.90
2018-04-30T10:26:47.963Z,42.30
2018-04-30T10:29:14.770Z,42.70
2018-04-30T10:31:40.854Z,42.70
2018-04-30T10:34:06.934Z,42.90
2018-04-30T10:36:32.996Z,42.90
2018-04-30T10:38:59.072Z,43.10
2018-04-30T10:41:25.147Z,43.20
2018-04-30T10:43:51.212Z,43.40
2018-04-30T10:46:17.272Z,42.30
2018-04-30T10:48:44.096Z,41.10
2018-04-30T10:51:10.160Z,41.00
2018-04-30T10:53:36.240Z,40.30
2018-04-30T10:56:02.321Z,39.50
2018-04-30T10:58:28.403Z,38.30
2018-04-30T11:00:54.493Z,38.60
2018-04-30T11:03:20.575Z,37.40
2018-04-30T11:05:47.393Z,37.20
2018-04-30T11:08:13.485Z,37.20
2018-04-30T11:10:39.584Z,36.10
2018-04-30T11:13:05.666Z,34.90
2018-04-30T11:15:31.749Z,33.60
2018-04-30T11:17:57.828Z,34.20
2018-04-30T11:20:23.896Z,34.70
2018-04-30T11:22:49.987Z,35.50
2018-04-30T11:25:16.068Z,35.60
2018-04-30T11:27:42.175Z,36.50
2018-04-30T11:30:08.989Z,36.10
2018-04-30T11:32:35.816Z,36.10
2018-04-30T11:35:02.646Z,36.20
2018-04-30T11:37:28.736Z,36.20
2018-04-30T11:39:54.902Z,36.30
2018-04-30T11:42:20.969Z,34.30
2018-04-30T11:44:47.067Z,33.30
2018-04-30T11:47:13.903Z,31.70
2018-04-30T11:49:39.993Z,31.60
2018-04-30T11:52:06.092Z,31.70
2018-04-30T11:54:32.183Z,31.90
2018-04-30T11:56:59.012Z,32.80
2018-04-30T11:59:25.091Z,32.80
2018-04-30T12:01:51.184Z,32.40
2018-04-30T12:04:18.003Z,30.50
2018-04-30T12:06:44.091Z,30.50
2018-04-30T12:09:10.203Z,29.70
2018-04-30T12:11:36.280Z,29.50
2018-04-30T12:14:02.365Z,29.90
2018-04-30T12:16:28.455Z,30.40
2018-04-30T12:18:55.277Z,30.10
2018-04-30T12:21:22.103Z,30.80
2018-04-30T12:23:48.169Z,30.00
2018-04-30T12:26:14.263Z,30.20
2018-04-30T12:28:46.821Z,30.20
2018-04-30T12:31:12.919Z,30.20
2018-04-30T12:33:39.012Z,29.50
2018-04-30T12:36:05.116Z,29.10
2018-04-30T12:38:31.185Z,29.00
2018-04-30T12:40:57.272Z,27.90
2018-04-30T12:43:23.363Z,27.80
2018-04-30T12:45:49.433Z,27.70
2018-04-30T12:48:16.256Z,27.00
2018-04-30T12:50:42.400Z,27.10
2018-04-30T12:53:08.428Z,27.50
2018-04-30T12:55:35.249Z,27.10
2018-04-30T12:58:01.369Z,27.50
2018-04-30T13:00:27.464Z,27.10
2018-04-30T13:02:53.568Z,26.30
2018-04-30T13:05:19.684Z,25.70
2018-04-30T13:07:45.750Z,25.90
2018-04-30T13:10:11.833Z,25.90
2018-04-30T13:12:38.674Z,25.90
2018-04-30T13:15:05.508Z,25.90
2018-04-30T13:17:32.356Z,26.00
2018-04-30T13:19:58.432Z,25.90
2018-04-30T13:22:24.521Z,25.70
2018-04-30T13:24:51.331Z,25.80
2018-04-30T13:27:17.395Z,25.70
2018-04-30T13:29:44.208Z,25.10
2018-04-30T13:32:10.274Z,25.10
2018-04-30T13:34:36.349Z,26.10
2018-04-30T13:37:02.414Z,26.30
2018-04-30T13:39:28.491Z,26.00
2018-04-30T13:41:54.556Z,26.00
2018-04-30T13:44:21.379Z,27.00
2018-04-30T13:46:47.440Z,27.00
2018-04-30T13:49:13.512Z,27.60
2018-04-30T13:51:39.574Z,27.90
2018-04-30T13:54:06.394Z,28.70
2018-04-30T13:56:32.472Z,28.70
2018-04-30T13:58:58.577Z,29.30
2018-04-30T14:01:24.657Z,29.50
2018-04-30T14:03:50.775Z,29.60
2018-04-30T14:06:16.860Z,29.50
2018-04-30T14:08:42.928Z,30.10
2018-04-30T14:11:09.011Z,30.40
2018-04-30T14:13:35.087Z,30.90
2018-04-30T14:16:01.220Z,30.70
2018-04-30T14:18:27.300Z,30.00
2018-04-30T14:20:53.385Z,29.40
2018-04-30T14:23:19.460Z,29.10
2018-04-30T14:25:45.545Z,28.50
2018-04-30T14:28:12.359Z,28.20
2018-04-30T14:30:38.460Z,28.20
2018-04-30T14:33:04.549Z,28.10
2018-04-30T14:35:30.628Z,28.00
2018-04-30T14:37:56.716Z,28.50
2018-04-30T14:40:22.800Z,28.70
2018-04-30T14:42:48.891Z,28.50
2018-04-30T14:45:14.968Z,28.70
2018-04-30T14:47:41.801Z,28.70
2018-04-30T14:50:08.623Z,28.70
2018-04-30T14:52:34.754Z,28.70
2018-04-30T14:55:00.799Z,28.60
2018-04-30T14:57:27.634Z,28.10
2018-04-30T14:59:53.708Z,28.00
2018-04-30T15:02:19.803Z,28.20
2018-04-30T15:04:46.616Z,28.60
2018-04-30T15:07:13.460Z,28.40
2018-04-30T15:09:39.539Z,28.40
2018-04-30T15:12:05.623Z,28.30
2018-04-30T15:14:31.707Z,28.50
2018-04-30T15:16:57.788Z,28.10
2018-04-30T15:19:24.653Z,27.60
2018-04-30T15:21:51.447Z,27.30
2018-04-30T15:24:17.528Z,27.30
2018-04-30T15:26:43.611Z,27.10
2018-04-30T15:29:10.440Z,27.20
2018-04-30T15:31:36.516Z,27.20
2018-04-30T15:34:02.605Z,27.30
2018-04-30T15:36:29.424Z,27.30
2018-04-30T15:38:55.512Z,27.20
2018-04-30T15:41:21.591Z,27.60
2018-04-30T15:43:47.677Z,28.00
2018-04-30T15:46:13.757Z,28.30
2018-04-30T15:48:40.636Z,27.60
2018-04-30T15:51:06.693Z,27.60
2018-04-30T15:53:32.776Z,27.60
2018-04-30T15:55:58.877Z,27.60
2018-04-30T15:58:25.711Z,28.30
2018-04-30T16:00:52.544Z,28.80
2018-04-30T16:03:18.628Z,28.30
2018-04-30T16:05:44.708Z,28.80
2018-04-30T16:08:11.529Z,29.50
2018-04-30T16:10:37.617Z,29.50
2018-04-30T16:13:03.681Z,29.40
2018-04-30T16:15:29.795Z,29.90
2018-04-30T16:17:55.876Z,29.30
2018-04-30T16:20:21.974Z,29.40
2018-04-30T16:22:48.037Z,29.70
2018-04-30T16:25:14.124Z,29.90
2018-04-30T16:27:40.950Z,30.00
2018-04-30T16:30:07.008Z,30.00
2018-04-30T16:32:33.097Z,30.30
2018-04-30T16:34:59.916Z,31.10
2018-04-30T16:37:26.015Z,31.10
2018-04-30T16:39:52.103Z,31.40
2018-04-30T16:42:18.184Z,31.70
2018-04-30T16:44:44.267Z,31.20
2018-04-30T16:47:11.150Z,31.80
2018-04-30T16:49:37.940Z,32.30
2018-04-30T16:52:04.028Z,32.30
2018-04-30T16:54:30.108Z,33.10
2018-04-30T16:56:56.929Z,33.70
2018-04-30T16:59:22.994Z,33.70
2018-04-30T17:01:49.149Z,34.10
2018-04-30T17:04:15.270Z,34.60
2018-04-30T17:06:41.344Z,34.70
2018-04-30T17:09:08.154Z,35.60
2018-04-30T17:11:34.243Z,34.90
2018-04-30T17:14:00.324Z,35.30
2018-04-30T17:16:26.399Z,35.70
2018-04-30T17:18:52.485Z,36.20
2018-04-30T17:21:18.593Z,36.60
2018-04-30T17:23:44.669Z,36.90
2018-04-30T17:26:10.735Z,37.20
2018-04-30T17:28:36.828Z,37.60
2018-04-30T17:31:02.888Z,38.00
2018-04-30T17:33:28.959Z,38.40
2018-04-30T17:35:55.025Z,38.80
2018-04-30T17:38:21.100Z,39.00
2018-04-30T17:40:47.904Z,39.60
2018-04-30T17:43:13.977Z,39.60
2018-04-30T17:45:40.042Z,39.80
2018-04-30T17:48:06.135Z,40.00
2018-04-30T17:50:32.196Z,40.20
2018-04-30T17:52:58.255Z,40.50
2018-04-30T17:55:24.332Z,41.00
2018-04-30T17:57:50.395Z,41.50
2018-04-30T18:00:16.468Z,41.90
2018-04-30T18:02:42.531Z,42.50
2018-04-30T18:05:08.608Z,43.20
2018-04-30T18:07:34.660Z,44.20
2018-04-30T18:10:00.713Z,44.90
2018-04-30T18:15:59.072Z,48.00
2018-04-30T18:18:25.135Z,47.40
2018-04-30T18:20:51.228Z,48.10
2018-04-30T18:23:17.290Z,48.70
2018-04-30T18:25:43.363Z,49.10
2018-04-30T18:31:15.755Z,50.00
2018-04-30T18:33:41.832Z,50.70
2018-04-30T18:36:07.904Z,51.70
2018-04-30T18:38:33.960Z,52.20
2018-04-30T18:41:00.036Z,52.70
2018-04-30T18:43:26.844Z,53.80
2018-04-30T18:45:52.922Z,53.70
2018-04-30T18:48:18.992Z,54.30
2018-04-30T18:50:45.081Z,54.90
2018-04-30T18:53:11.144Z,55.60
2018-04-30T18:55:37.206Z,55.70
2018-04-30T18:58:04.020Z,56.40
2018-04-30T19:00:30.083Z,56.40
2018-04-30T19:02:56.148Z,56.80
2018-04-30T19:05:22.216Z,56.90
2018-04-30T19:07:49.033Z,57.40
2018-04-30T19:10:15.101Z,57.30
2018-04-30T19:12:41.180Z,57.90
2018-04-30T19:15:07.243Z,58.10
2018-04-30T19:17:34.049Z,58.50
2018-04-30T19:20:00.107Z,58.40
2018-04-30T19:22:26.916Z,58.80
2018-04-30T19:24:52.984Z,58.70
2018-04-30T19:27:19.059Z,59.10
2018-04-30T19:29:45.132Z,59.50
2018-04-30T19:32:11.956Z,59.90
2018-04-30T19:34:38.760Z,60.40
2018-04-30T19:37:04.903Z,61.10
2018-04-30T19:39:30.912Z,60.70
2018-04-30T19:41:56.968Z,61.40
2018-04-30T19:44:23.786Z,63.00
2018-04-30T19:46:49.885Z,63.00
2018-04-30T19:49:16.699Z,64.00
2018-04-30T19:51:43.501Z,63.90
2018-04-30T19:54:09.567Z,63.90
2018-04-30T19:56:36.411Z,63.20
2018-04-30T19:59:03.216Z,64.10
2018-04-30T20:01:29.271Z,64.10
2018-04-30T20:03:56.084Z,64.90
2018-04-30T20:06:22.152Z,64.90
2018-04-30T20:08:48.325Z,65.40
2018-04-30T20:11:14.321Z,65.90
2018-04-30T20:13:40.376Z,66.20
2018-04-30T20:16:06.449Z,66.50
2018-04-30T20:18:32.512Z,66.70
2018-04-30T20:20:58.575Z,67.40
2018-04-30T20:23:24.662Z,67.40
2018-04-30T20:25:50.744Z,67.10
2018-04-30T20:28:17.544Z,67.70
2018-04-30T20:30:43.608Z,67.60
2018-04-30T20:33:10.408Z,67.20
2018-04-30T20:35:36.477Z,67.20
2018-04-30T20:38:03.319Z,67.90
2018-04-30T20:40:29.393Z,67.90
2018-04-30T20:42:55.476Z,68.20
2018-04-30T20:45:22.290Z,67.60
2018-04-30T20:47:48.364Z,67.50
2018-04-30T20:50:14.424Z,67.60
2018-04-30T20:52:40.567Z,68.80
2018-04-30T20:55:07.607Z,69.10
2018-04-30T20:57:40.244Z,68.90
2018-04-30T21:00:06.358Z,68.40
2018-04-30T21:02:33.149Z,69.10
2018-04-30T21:04:59.223Z,68.90
2018-04-30T21:07:25.299Z,69.10
2018-04-30T21:10:20.796Z,69.50
2018-04-30T21:12:47.888Z,69.50
2018-04-30T21:15:13.952Z,69.60
2018-04-30T21:17:40.056Z,70.50
2018-04-30T21:20:08.104Z,71.20
2018-04-30T21:22:34.935Z,71.10
2018-04-30T21:25:15.592Z,71.60
2018-04-30T21:27:41.656Z,71.60
2018-04-30T21:30:08.462Z,72.50
2018-04-30T21:32:34.599Z,72.50
2018-04-30T21:35:00.656Z,72.30
2018-04-30T21:37:43.028Z,72.40
2018-04-30T21:40:12.731Z,72.40
2018-04-30T21:43:04.497Z,73.00
2018-04-30T21:45:35.220Z,72.80
2018-04-30T21:48:17.604Z,72.70
2018-04-30T21:50:51.265Z,72.60
2018-04-30T21:56:23.681Z,72.70
2018-04-30T21:58:49.771Z,73.00
2018-04-30T22:01:15.840Z,73.40
2018-04-30T22:03:41.957Z,73.80
2018-04-30T22:06:08.033Z,74.80
2018-04-30T22:08:34.847Z,76.70
2018-04-30T22:11:01.681Z,78.00
2018-04-30T22:13:27.760Z,77.20
2018-04-30T22:15:53.835Z,77.20
2018-04-30T22:18:19.908Z,77.60
2018-04-30T22:21:10.604Z,77.70
2018-04-30T22:23:36.675Z,77.30
2018-04-30T22:26:02.760Z,77.50
2018-04-30T22:28:39.956Z,77.30
2018-04-30T22:31:06.040Z,77.30
2018-04-30T22:33:32.103Z,77.00
2018-04-30T22:35:58.188Z,77.00
2018-04-30T22:38:32.454Z,77.10
2018-04-30T22:41:01.933Z,77.20
2018-04-30T22:43:28.748Z,77.30
2018-04-30T22:46:08.073Z,77.20
2018-04-30T22:48:34.157Z,76.90
2018-04-30T22:51:00.239Z,76.50
2018-04-30T22:53:26.313Z,76.10
2018-04-30T22:55:52.438Z,76.30
2018-04-30T22:58:18.515Z,76.10
2018-04-30T23:00:44.579Z,75.80
2018-04-30T23:03:10.645Z,75.20
2018-04-30T23:05:36.711Z,74.90
2018-04-30T23:08:03.517Z,74.60
2018-04-30T23:10:29.592Z,74.60
2018-04-30T23:12:55.660Z,74.10
2018-04-30T23:15:21.754Z,73.70
2018-04-30T23:17:47.816Z,73.50
2018-04-30T23:20:13.867Z,73.00
2018-04-30T23:22:40.673Z,72.20
2018-04-30T23:25:06.747Z,71.40
2018-04-30T23:27:33.557Z,69.70
2018-04-30T23:29:59.624Z,69.60
2018-04-30T23:32:25.696Z,68.90
2018-04-30T23:34:51.757Z,68.10
2018-04-30T23:37:17.824Z,67.60
2018-04-30T23:39:43.888Z,67.20
2018-04-30T23:42:09.960Z,66.60
2018-04-30T23:44:36.019Z,66.10
2018-04-30T23:47:02.093Z,65.80
2018-04-30T23:49:28.172Z,65.60
2018-04-30T23:51:54.236Z,65.60
2018-04-30T23:54:21.048Z,65.10
2018-04-30T23:56:47.141Z,65.00
2018-04-30T23:59:13.220Z,64.50
